createdAt,value
2022-11-05T00:01:55.255Z,0.70
2022-11-05T00:04:40.085Z,0.85
2022-11-05T00:07:30.119Z,0.80
2022-11-05T00:10:06.951Z,0.60
2022-11-05T00:13:05.712Z,0.50
2022-11-05T00:15:50.511Z,0.68
2022-11-05T00:18:17.065Z,0.52
2022-11-05T00:20:43.734Z,0.55
2022-11-05T00:23:29.013Z,0.65
2022-11-05T00:25:59.754Z,0.60
2022-11-05T00:28:27.176Z,0.70
2022-11-05T00:30:53.905Z,0.63
2022-11-05T00:33:20.700Z,0.47
2022-11-05T00:35:47.193Z,0.50
2022-11-05T00:38:13.731Z,0.70
2022-11-05T00:40:40.310Z,1.17
2022-11-05T00:43:25.473Z,0.73
2022-11-05T00:45:51.946Z,0.70
2022-11-05T00:48:37.056Z,0.70
2022-11-05T00:51:03.576Z,0.50
2022-11-05T00:53:30.028Z,0.80
2022-11-05T00:55:56.494Z,0.90
2022-11-05T00:58:23.613Z,0.40
2022-11-05T01:00:53.926Z,0.55
2022-11-05T01:03:22.167Z,0.52
2022-11-05T01:05:50.255Z,0.60
2022-11-05T01:08:17.693Z,0.45
2022-11-05T01:10:46.294Z,0.50
2022-11-05T01:13:13.659Z,0.55
2022-11-05T01:15:40.537Z,0.50
2022-11-05T01:18:07.084Z,0.63
2022-11-05T01:20:33.677Z,0.55
2022-11-05T01:23:00.177Z,0.82
2022-11-05T01:25:26.961Z,1.02
2022-11-05T01:27:53.436Z,0.70
2022-11-05T01:30:20.098Z,0.50
2022-11-05T01:32:46.753Z,0.75
2022-11-05T01:35:14.538Z,0.98
2022-11-05T01:37:41.202Z,0.70
2022-11-05T01:40:09.020Z,0.90
2022-11-05T01:42:35.504Z,0.90
2022-11-05T01:45:03.581Z,0.85
2022-11-05T01:47:30.051Z,1.08
2022-11-05T01:49:58.313Z,0.80
2022-11-05T01:52:25.048Z,1.08
2022-11-05T01:54:51.551Z,1.17
2022-11-05T01:57:18.069Z,1.25
2022-11-05T01:59:47.418Z,1.67
2022-11-05T02:02:14.032Z,1.65
2022-11-05T02:04:43.704Z,1.63
2022-11-05T02:07:11.058Z,1.63
2022-11-05T02:09:49.450Z,1.48
2022-11-05T02:12:15.953Z,1.90
2022-11-05T02:14:42.457Z,2.15
2022-11-05T02:17:13.560Z,1.80
2022-11-05T02:19:51.915Z,1.63
2022-11-05T02:22:24.514Z,1.48
2022-11-05T02:25:02.047Z,1.30
2022-11-05T02:27:28.520Z,1.70
2022-11-05T02:30:03.210Z,1.77
2022-11-05T02:32:29.683Z,1.40
2022-11-05T02:34:56.247Z,1.40
2022-11-05T02:37:37.378Z,1.35
2022-11-05T02:40:22.237Z,1.20
2022-11-05T02:43:27.097Z,1.40
2022-11-05T02:46:08.472Z,1.60
2022-11-05T02:48:44.210Z,1.20
2022-11-05T02:51:26.661Z,1.40
2022-11-05T02:54:13.429Z,1.40
2022-11-05T02:56:41.355Z,1.17
2022-11-05T02:59:07.854Z,1.40
2022-11-05T03:01:35.482Z,1.23
2022-11-05T03:04:04.385Z,0.90
2022-11-05T03:06:40.008Z,1.77
2022-11-05T03:09:19.123Z,0.80
2022-11-05T03:11:48.655Z,1.02
2022-11-05T03:14:33.894Z,1.25
2022-11-05T03:17:07.050Z,1.13
2022-11-05T03:19:40.691Z,0.73
2022-11-05T03:22:13.333Z,0.80
2022-11-05T03:24:43.158Z,0.77
2022-11-05T03:27:11.105Z,0.60
2022-11-05T03:29:39.264Z,0.63
2022-11-05T03:32:06.721Z,0.47
2022-11-05T03:34:38.837Z,0.52
2022-11-05T03:37:06.420Z,0.60
2022-11-05T03:39:38.109Z,0.45
2022-11-05T03:42:06.488Z,0.70
2022-11-05T03:44:36.097Z,0.50
2022-11-05T03:47:05.498Z,0.55
2022-11-05T03:49:37.669Z,0.38
2022-11-05T03:52:10.214Z,0.70
2022-11-05T03:54:36.858Z,0.50
2022-11-05T03:57:08.833Z,0.60
2022-11-05T03:59:39.928Z,0.50
2022-11-05T04:02:06.580Z,0.60
2022-11-05T04:04:33.162Z,0.57
2022-11-05T04:07:18.467Z,0.43
2022-11-05T04:10:03.747Z,1.10
2022-11-05T04:12:48.979Z,0.60
2022-11-05T04:15:15.512Z,0.40
2022-11-05T04:17:41.984Z,0.60
2022-11-05T04:20:27.146Z,0.55
2022-11-05T04:23:18.837Z,0.50
2022-11-05T04:25:45.349Z,0.55
2022-11-05T04:28:11.905Z,0.50
2022-11-05T04:30:38.407Z,0.40
2022-11-05T04:33:15.465Z,0.40
2022-11-05T04:35:42.253Z,0.40
2022-11-05T04:38:10.099Z,0.45
2022-11-05T04:40:36.807Z,0.40
2022-11-05T04:43:03.970Z,0.40
2022-11-05T04:45:32.198Z,0.50
2022-11-05T04:47:58.727Z,0.40
2022-11-05T04:50:25.313Z,0.40
2022-11-05T04:52:51.821Z,0.40
2022-11-05T04:55:18.654Z,0.40
2022-11-05T04:57:47.395Z,0.40
2022-11-05T05:00:14.014Z,0.40
2022-11-05T05:02:40.505Z,0.50
2022-11-05T05:05:07.157Z,0.63
2022-11-05T05:07:34.172Z,0.40
2022-11-05T05:10:01.373Z,0.50
2022-11-05T05:12:28.140Z,0.50
2022-11-05T05:14:54.605Z,0.57
2022-11-05T05:17:21.191Z,0.68
2022-11-05T05:20:06.342Z,0.63
2022-11-05T05:22:32.869Z,0.52
2022-11-05T05:25:00.163Z,0.70
2022-11-05T05:27:29.531Z,0.60
2022-11-05T05:29:59.704Z,0.80
2022-11-05T05:32:26.772Z,0.80
2022-11-05T05:34:53.278Z,0.80
2022-11-05T05:37:19.789Z,0.88
2022-11-05T05:39:47.905Z,0.40
2022-11-05T05:42:14.638Z,0.60
2022-11-05T05:44:41.357Z,0.70
2022-11-05T05:47:07.912Z,0.50
2022-11-05T05:49:34.397Z,0.50
2022-11-05T05:52:00.978Z,0.80
2022-11-05T05:54:32.163Z,0.52
2022-11-05T05:57:00.036Z,0.60
2022-11-05T05:59:26.499Z,0.70
2022-11-05T06:01:53.467Z,0.70
2022-11-05T06:04:20.718Z,0.70
2022-11-05T06:06:47.387Z,0.65
2022-11-05T06:09:14.588Z,0.45
2022-11-05T06:11:41.395Z,0.45
2022-11-05T06:14:11.649Z,0.50
2022-11-05T06:16:39.102Z,0.50
2022-11-05T06:19:08.449Z,0.65
2022-11-05T06:21:35.072Z,0.75
2022-11-05T06:24:02.672Z,0.60
2022-11-05T06:26:29.370Z,0.80
2022-11-05T06:28:55.895Z,0.57
2022-11-05T06:31:22.529Z,0.50
2022-11-05T06:33:49.074Z,0.50
2022-11-05T06:36:16.348Z,0.60
2022-11-05T06:38:43.009Z,0.45
2022-11-05T06:41:10.735Z,0.77
2022-11-05T06:43:42.030Z,0.40
2022-11-05T06:46:09.828Z,0.60
2022-11-05T06:48:36.462Z,0.50
2022-11-05T06:51:03.371Z,0.57
2022-11-05T06:53:30.347Z,0.77
2022-11-05T06:55:56.916Z,0.40
2022-11-05T06:58:23.629Z,0.65
2022-11-05T07:00:50.521Z,0.38
2022-11-05T07:03:17.212Z,0.50
2022-11-05T07:05:45.450Z,0.63
2022-11-05T07:08:12.137Z,0.73
2022-11-05T07:10:38.645Z,0.45
2022-11-05T07:13:08.117Z,0.30
2022-11-05T07:15:35.447Z,0.43
2022-11-05T07:18:01.968Z,0.50
2022-11-05T07:20:33.575Z,0.50
2022-11-05T07:23:08.469Z,0.47
2022-11-05T07:25:35.612Z,0.40
2022-11-05T07:28:02.535Z,0.40
2022-11-05T07:30:29.159Z,0.30
2022-11-05T07:32:55.693Z,0.30
2022-11-05T07:35:22.281Z,0.28
2022-11-05T07:37:49.734Z,0.40
2022-11-05T07:40:18.471Z,0.50
2022-11-05T07:42:45.718Z,0.40
2022-11-05T07:45:12.703Z,0.40
2022-11-05T07:47:50.353Z,0.40
2022-11-05T07:50:18.007Z,0.40
2022-11-05T07:52:44.691Z,0.70
2022-11-05T07:55:11.792Z,0.50
2022-11-05T07:57:42.218Z,0.60
2022-11-05T08:00:10.161Z,0.30
2022-11-05T08:02:36.851Z,0.70
2022-11-05T08:05:03.740Z,0.50
2022-11-05T08:07:30.226Z,0.50
2022-11-05T08:09:56.661Z,0.32
2022-11-05T08:12:23.135Z,0.57
2022-11-05T08:14:49.598Z,1.13
2022-11-05T08:17:18.536Z,0.80
2022-11-05T08:19:45.097Z,0.47
2022-11-05T08:22:11.577Z,0.50
2022-11-05T08:24:38.046Z,0.45
2022-11-05T08:27:04.559Z,0.50
2022-11-05T08:29:30.999Z,0.35
2022-11-05T08:31:57.493Z,0.50
2022-11-05T08:34:23.963Z,0.70
2022-11-05T08:36:50.442Z,0.52
2022-11-05T08:39:18.999Z,0.57
2022-11-05T08:41:46.120Z,0.50
2022-11-05T08:44:12.706Z,0.55
2022-11-05T08:46:41.715Z,0.55
2022-11-05T08:49:08.822Z,0.30
2022-11-05T08:51:35.365Z,0.45
2022-11-05T08:54:01.882Z,0.47
2022-11-05T08:56:28.394Z,0.47
2022-11-05T08:58:54.900Z,0.50
2022-11-05T09:01:21.570Z,0.40
2022-11-05T09:03:51.364Z,0.43
2022-11-05T09:06:18.082Z,0.30
2022-11-05T09:08:44.618Z,0.55
2022-11-05T09:11:11.105Z,0.30
2022-11-05T09:13:37.649Z,0.35
2022-11-05T09:16:04.310Z,0.40
2022-11-05T09:18:31.062Z,0.50
2022-11-05T09:20:57.735Z,0.45
2022-11-05T09:23:24.248Z,0.40
2022-11-05T09:25:50.736Z,0.50
2022-11-05T09:28:18.622Z,0.50
2022-11-05T09:30:47.107Z,0.40
2022-11-05T09:33:14.115Z,0.55
2022-11-05T09:35:41.606Z,0.60
2022-11-05T09:38:08.269Z,0.80
2022-11-05T09:40:41.116Z,0.60
2022-11-05T09:43:08.233Z,0.60
2022-11-05T09:45:35.630Z,0.65
2022-11-05T09:48:05.865Z,0.47
2022-11-05T09:50:38.894Z,0.55
2022-11-05T09:53:05.475Z,0.75
2022-11-05T09:55:37.222Z,0.75
2022-11-05T09:58:06.519Z,0.52
2022-11-05T10:00:33.998Z,0.77
2022-11-05T10:03:04.084Z,0.70
2022-11-05T10:05:32.151Z,0.52
2022-11-05T10:08:01.655Z,1.20
2022-11-05T10:10:28.159Z,0.75
2022-11-05T10:12:57.203Z,0.60
2022-11-05T10:15:31.942Z,0.88
2022-11-05T10:18:10.360Z,0.70
2022-11-05T10:20:37.867Z,0.50
2022-11-05T10:23:17.879Z,0.68
2022-11-05T10:25:46.501Z,0.75
2022-11-05T10:28:20.317Z,0.47
2022-11-05T10:33:15.337Z,1.00
2022-11-05T10:35:50.348Z,2.65
2022-11-05T10:38:16.843Z,0.80
2022-11-05T10:40:43.309Z,1.33
2022-11-05T10:43:28.421Z,1.75
2022-11-05T10:46:17.878Z,2.40
2022-11-05T10:48:49.602Z,2.97
2022-11-05T10:51:16.338Z,4.07
2022-11-05T10:53:50.090Z,2.80
2022-11-05T10:56:28.684Z,2.30
2022-11-05T10:58:57.019Z,2.95
2022-11-05T11:01:24.545Z,2.63
2022-11-05T11:03:52.998Z,2.90
2022-11-05T11:06:30.374Z,2.70
2022-11-05T11:08:57.814Z,3.22
2022-11-05T11:11:38.483Z,3.58
2022-11-05T11:14:06.814Z,2.90
2022-11-05T11:16:38.225Z,3.00
2022-11-05T11:19:20.854Z,3.00
2022-11-05T11:21:49.201Z,3.42
2022-11-05T11:24:20.411Z,2.50
2022-11-05T11:26:47.054Z,3.03
2022-11-05T11:29:21.072Z,3.40
2022-11-05T11:31:47.589Z,3.85
2022-11-05T11:34:28.321Z,3.03
2022-11-05T11:36:55.852Z,3.83
2022-11-05T11:39:24.117Z,3.70
2022-11-05T11:41:52.654Z,3.53
2022-11-05T11:44:33.632Z,4.35
2022-11-05T11:47:02.745Z,4.05
2022-11-05T11:49:33.904Z,3.90
2022-11-05T11:52:06.451Z,3.42
2022-11-05T11:54:33.690Z,4.20
2022-11-05T11:57:00.263Z,4.40
2022-11-05T11:59:53.937Z,3.28
2022-11-05T12:02:17.945Z,3.33
2022-11-05T12:04:50.645Z,4.07
2022-11-05T12:07:19.902Z,4.03
2022-11-05T12:09:55.153Z,4.32
2022-11-05T12:12:44.378Z,3.85
2022-11-05T12:15:23.062Z,3.38
2022-11-05T12:17:59.766Z,3.70
2022-11-05T12:20:48.107Z,3.13
2022-11-05T12:23:33.339Z,2.72
2022-11-05T12:26:16.354Z,2.30
2022-11-05T12:29:17.986Z,2.65
2022-11-05T12:31:44.462Z,2.35
2022-11-05T12:34:13.955Z,2.17
2022-11-05T12:37:19.059Z,2.58
2022-11-05T12:40:03.026Z,2.10
2022-11-05T12:42:49.805Z,2.20
2022-11-05T12:45:34.473Z,2.33
2022-11-05T12:48:04.146Z,3.28
2022-11-05T12:50:30.620Z,2.55
2022-11-05T12:53:20.374Z,2.63
2022-11-05T12:55:49.583Z,2.50
2022-11-05T12:58:35.312Z,2.55
2022-11-05T13:01:07.655Z,2.45
2022-11-05T13:03:37.299Z,2.70
2022-11-05T13:06:06.828Z,2.78
2022-11-05T13:08:39.477Z,2.20
2022-11-05T13:11:21.455Z,2.45
2022-11-05T13:13:51.426Z,2.00
2022-11-05T13:16:17.885Z,1.70
2022-11-05T13:18:48.270Z,1.58
2022-11-05T13:21:15.289Z,1.65
2022-11-05T13:23:46.072Z,1.60
2022-11-05T13:26:19.649Z,1.50
2022-11-05T13:31:16.533Z,1.90
2022-11-05T13:33:44.633Z,1.50
2022-11-05T13:36:45.734Z,1.05
2022-11-05T13:39:20.674Z,1.25
2022-11-05T13:42:05.872Z,1.10
2022-11-05T13:44:41.520Z,1.40
2022-11-05T13:47:13.827Z,1.23
2022-11-05T13:49:55.576Z,0.90
2022-11-05T13:52:40.920Z,1.15
2022-11-05T13:55:13.700Z,2.35
2022-11-05T13:57:55.411Z,4.07
2022-11-05T14:00:27.397Z,2.17
2022-11-05T14:02:59.619Z,2.15
2022-11-05T14:05:29.363Z,2.30
2022-11-05T14:07:56.734Z,2.58
2022-11-05T14:10:43.169Z,3.67
2022-11-05T14:13:22.832Z,3.42
2022-11-05T14:15:55.541Z,5.35
2022-11-05T14:18:25.266Z,4.13
2022-11-05T14:21:01.713Z,2.50
2022-11-05T14:23:31.257Z,2.55
2022-11-05T14:26:11.893Z,1.98
2022-11-05T14:28:38.410Z,1.77
2022-11-05T14:31:20.609Z,1.48
2022-11-05T14:34:05.978Z,1.60
2022-11-05T14:36:39.510Z,2.33
2022-11-05T14:39:12.226Z,2.05
2022-11-05T14:41:52.115Z,1.92
2022-11-05T14:44:18.599Z,1.92
2022-11-05T14:46:46.949Z,1.42
2022-11-05T14:49:33.600Z,1.55
2022-11-05T14:52:05.281Z,1.60
2022-11-05T14:54:36.744Z,2.00
2022-11-05T14:57:03.558Z,3.38
2022-11-05T14:59:31.780Z,2.28
2022-11-05T15:02:01.418Z,2.55
2022-11-05T15:04:32.179Z,1.90
2022-11-05T15:07:01.786Z,1.38
2022-11-05T15:09:42.771Z,1.50
2022-11-05T15:12:22.439Z,1.70
2022-11-05T15:14:53.072Z,1.83
2022-11-05T15:17:31.015Z,1.83
2022-11-05T15:20:00.698Z,3.42
2022-11-05T15:22:33.061Z,2.40
2022-11-05T15:24:59.950Z,2.30
2022-11-05T15:27:35.143Z,2.50
2022-11-05T15:30:13.715Z,1.98
2022-11-05T15:32:40.197Z,1.63
2022-11-05T15:35:19.354Z,1.50
2022-11-05T15:37:52.408Z,2.28
2022-11-05T15:40:23.076Z,1.88
2022-11-05T15:43:08.721Z,1.23
2022-11-05T15:45:35.441Z,1.15
2022-11-05T15:48:01.947Z,1.80
2022-11-05T15:50:28.700Z,2.78
2022-11-05T15:52:56.680Z,2.97
2022-11-05T15:55:27.938Z,3.30
2022-11-05T15:57:58.782Z,4.93
2022-11-05T16:00:27.328Z,7.85
2022-11-05T16:02:53.944Z,5.15
2022-11-05T16:05:21.122Z,4.10
2022-11-05T16:07:48.037Z,5.25
2022-11-05T16:10:28.864Z,6.57
2022-11-05T16:12:55.380Z,4.88
2022-11-05T16:15:23.458Z,6.15
2022-11-05T16:17:55.454Z,4.43
2022-11-05T16:20:28.266Z,7.35
2022-11-05T16:22:56.955Z,6.07
2022-11-05T16:25:23.540Z,5.07
2022-11-05T16:27:50.067Z,7.05
2022-11-05T16:30:17.702Z,9.63
2022-11-05T16:32:44.355Z,10.27
2022-11-05T16:35:24.392Z,13.98
2022-11-05T16:37:52.451Z,13.38
2022-11-05T16:40:23.906Z,12.85
2022-11-05T16:42:51.677Z,12.57
2022-11-05T16:45:19.349Z,15.10
2022-11-05T16:47:46.291Z,16.55
2022-11-05T16:50:13.058Z,7.53
2022-11-05T16:52:39.552Z,18.70
2022-11-05T16:55:06.081Z,12.00
2022-11-05T16:57:32.687Z,7.90
2022-11-05T16:59:59.967Z,56.17
2022-11-05T17:02:26.896Z,51.67
2022-11-05T17:04:53.652Z,21.88
2022-11-05T17:07:20.199Z,16.13
2022-11-05T17:09:46.744Z,19.95
2022-11-05T17:12:13.666Z,11.82
2022-11-05T17:14:40.134Z,6.15
2022-11-05T17:17:06.728Z,5.53
2022-11-05T17:19:33.781Z,5.10
2022-11-05T17:22:00.340Z,5.00
2022-11-05T17:24:26.953Z,5.65
2022-11-05T17:26:53.541Z,6.40
2022-11-05T17:29:20.136Z,5.75
2022-11-05T17:31:46.676Z,4.95
2022-11-05T17:34:13.298Z,5.53
2022-11-05T17:36:39.818Z,7.35
2022-11-05T17:39:06.356Z,7.65
2022-11-05T17:41:32.844Z,7.18
2022-11-05T17:44:00.461Z,4.75
2022-11-05T17:46:26.955Z,4.82
2022-11-05T17:48:53.539Z,6.15
2022-11-05T17:51:20.254Z,7.70
2022-11-05T17:53:48.527Z,8.20
2022-11-05T17:56:32.179Z,6.55
2022-11-05T17:59:00.777Z,7.53
2022-11-05T18:01:31.874Z,11.07
2022-11-05T18:04:01.289Z,9.50
2022-11-05T18:06:30.554Z,8.48
2022-11-05T18:08:57.037Z,7.90
2022-11-05T18:11:23.590Z,6.38
2022-11-05T18:13:50.172Z,7.15
2022-11-05T18:16:16.950Z,9.38
2022-11-05T18:18:43.499Z,9.52
2022-11-05T18:21:10.006Z,11.02
2022-11-05T18:23:36.625Z,11.25
2022-11-05T18:26:08.395Z,10.88
2022-11-05T18:28:35.014Z,9.93
2022-11-05T18:31:01.526Z,8.93
2022-11-05T18:33:28.183Z,7.10
2022-11-05T18:35:54.742Z,7.95
2022-11-05T18:38:21.250Z,9.63
2022-11-05T18:40:47.799Z,10.38
2022-11-05T18:43:14.786Z,13.82
2022-11-05T18:45:41.615Z,18.42
2022-11-05T18:48:08.277Z,22.88
2022-11-05T18:50:34.861Z,42.53
2022-11-05T18:53:01.385Z,36.85
2022-11-05T18:55:27.935Z,38.42
2022-11-05T18:57:54.460Z,40.15
2022-11-05T19:00:21.037Z,39.33
2022-11-05T19:02:47.707Z,43.30
2022-11-05T19:05:28.498Z,50.30
2022-11-05T19:07:55.420Z,49.85
2022-11-05T19:10:21.956Z,48.38
2022-11-05T19:12:48.583Z,44.33
2022-11-05T19:15:15.178Z,47.83
2022-11-05T19:17:41.696Z,47.38
2022-11-05T19:20:09.285Z,41.58
2022-11-05T19:22:35.905Z,31.58
2022-11-05T19:25:02.471Z,26.33
2022-11-05T19:27:29.186Z,21.52
2022-11-05T19:29:55.746Z,24.85
2022-11-05T19:32:22.510Z,22.63
2022-11-05T19:34:49.142Z,23.65
2022-11-05T19:37:15.886Z,23.42
2022-11-05T19:39:42.517Z,21.38
2022-11-05T19:42:09.028Z,22.15
2022-11-05T19:44:35.535Z,21.15
2022-11-05T19:47:02.097Z,20.88
2022-11-05T19:49:28.593Z,23.25
2022-11-05T19:51:55.573Z,21.90
2022-11-05T19:54:22.086Z,19.27
2022-11-05T19:56:49.573Z,18.27
2022-11-05T19:59:16.010Z,18.73
2022-11-05T20:01:42.529Z,13.73
2022-11-05T20:04:09.584Z,12.88
2022-11-05T20:06:38.783Z,12.55
2022-11-05T20:09:21.225Z,12.35
2022-11-05T20:11:49.879Z,9.65
2022-11-05T20:14:16.444Z,9.82
2022-11-05T20:16:43.024Z,10.55
2022-11-05T20:19:12.962Z,10.07
2022-11-05T20:21:39.548Z,11.18
2022-11-05T20:24:06.508Z,11.23
2022-11-05T20:26:33.024Z,10.13
2022-11-05T20:28:59.832Z,8.90
2022-11-05T20:31:26.334Z,8.50
2022-11-05T20:33:53.430Z,8.63
2022-11-05T20:36:22.196Z,10.25
2022-11-05T20:38:49.906Z,12.00
2022-11-05T20:41:16.800Z,10.55
2022-11-05T20:43:43.380Z,11.90
2022-11-05T20:46:11.896Z,13.93
2022-11-05T20:48:38.416Z,13.60
2022-11-05T20:51:06.599Z,12.07
2022-11-05T20:53:33.154Z,10.88
2022-11-05T20:56:03.691Z,11.52
2022-11-05T20:58:33.522Z,12.70
2022-11-05T21:01:00.056Z,15.93
2022-11-05T21:03:27.351Z,20.73
2022-11-05T21:05:56.474Z,21.20
2022-11-05T21:08:24.029Z,18.88
2022-11-05T21:10:51.551Z,18.38
2022-11-05T21:13:18.306Z,14.10
2022-11-05T21:15:52.837Z,14.90
2022-11-05T21:18:20.149Z,14.18
2022-11-05T21:20:46.765Z,13.68
2022-11-05T21:23:13.739Z,9.63
2022-11-05T21:25:41.009Z,9.43
2022-11-05T21:28:08.066Z,9.27
2022-11-05T21:30:36.186Z,8.52
2022-11-05T21:33:03.611Z,10.32
2022-11-05T21:35:30.107Z,9.75
2022-11-05T21:37:56.660Z,10.55
2022-11-05T21:40:23.178Z,8.95
2022-11-05T21:42:49.806Z,6.97
2022-11-05T21:45:16.347Z,6.65
2022-11-05T21:47:42.856Z,6.82
2022-11-05T21:50:10.134Z,6.88
2022-11-05T21:52:55.245Z,9.35
2022-11-05T21:55:41.966Z,11.32
2022-11-05T21:58:34.133Z,19.88
2022-11-05T22:01:01.203Z,16.42
2022-11-05T22:03:27.920Z,17.70
2022-11-05T22:05:55.988Z,14.10
2022-11-05T22:08:22.711Z,17.45
2022-11-05T22:10:49.257Z,23.55
2022-11-05T22:13:15.769Z,14.57
2022-11-05T22:15:42.255Z,19.00
2022-11-05T22:18:08.776Z,16.40
2022-11-05T22:20:37.413Z,20.88
2022-11-05T22:23:08.590Z,34.35
2022-11-05T22:25:37.504Z,22.98
2022-11-05T22:28:04.128Z,17.25
2022-11-05T22:30:33.357Z,13.45
2022-11-05T22:33:00.030Z,9.80
2022-11-05T22:35:26.508Z,13.70
2022-11-05T22:37:52.993Z,16.13
2022-11-05T22:40:23.322Z,15.00
2022-11-05T22:42:50.370Z,14.25
2022-11-05T22:45:16.839Z,9.65
2022-11-05T22:47:43.272Z,7.70
2022-11-05T22:50:09.880Z,6.68
2022-11-05T22:52:36.369Z,6.72
2022-11-05T22:55:05.049Z,5.93
2022-11-05T22:57:31.575Z,5.32
2022-11-05T22:59:58.103Z,7.20
2022-11-05T23:02:24.830Z,8.98
2022-11-05T23:04:51.833Z,5.88
2022-11-05T23:07:37.047Z,8.85
2022-11-05T23:10:22.325Z,10.95
2022-11-05T23:12:49.053Z,8.32
2022-11-05T23:15:34.436Z,6.75
2022-11-05T23:18:19.686Z,8.80
2022-11-05T23:21:04.990Z,10.45
2022-11-05T23:23:50.101Z,6.55
2022-11-05T23:26:35.373Z,5.60
2022-11-05T23:29:01.800Z,6.93
2022-11-05T23:31:46.919Z,5.75
2022-11-05T23:34:13.380Z,4.13
2022-11-05T23:36:58.663Z,3.92
2022-11-05T23:39:25.120Z,3.10
2022-11-05T23:42:10.366Z,12.40
2022-11-05T23:44:55.273Z,14.52
2022-11-05T23:47:40.496Z,10.27
2022-11-05T23:50:07.046Z,5.65
2022-11-05T23:52:33.505Z,4.90
2022-11-05T23:54:59.949Z,3.55
2022-11-05T23:57:26.447Z,2.95
2022-11-05T23:59:52.922Z,3.70
